sensor_id;sensor_type;location;lat;lon;timestamp;P1;durP1;ratioP1;P2;durP2;ratioP2
17937;SDS011;16051;53.024;8.630;2023-04-07T00:01:22;12.60;;;8.10;;
17937;SDS011;16051;53.024;8.630;2023-04-07T00:05:28;11.77;;;8.20;;
17937;SDS011;16051;53.024;8.630;2023-04-07T00:09:30;13.23;;;8.70;;
17937;SDS011;16051;53.024;8.630;2023-04-07T00:13:32;10.53;;;7.80;;
17937;SDS011;16051;53.024;8.630;2023-04-07T00:17:34;12.37;;;7.63;;
17937;SDS011;16051;53.024;8.630;2023-04-07T00:21:38;10.93;;;7.77;;
17937;SDS011;16051;53.024;8.630;2023-04-07T00:25:40;11.93;;;7.83;;
17937;SDS011;16051;53.024;8.630;2023-04-07T00:29:42;11.10;;;7.43;;
17937;SDS011;16051;53.024;8.630;2023-04-07T00:38:44;11.03;;;7.97;;
17937;SDS011;16051;53.024;8.630;2023-04-07T00:42:46;11.60;;;8.10;;
17937;SDS011;16051;53.024;8.630;2023-04-07T00:51:20;10.03;;;7.87;;
17937;SDS011;16051;53.024;8.630;2023-04-07T00:55:24;10.83;;;7.77;;
17937;SDS011;16051;53.024;8.630;2023-04-07T00:59:26;12.37;;;7.60;;
17937;SDS011;16051;53.024;8.630;2023-04-07T01:03:32;11.50;;;7.47;;
17937;SDS011;16051;53.024;8.630;2023-04-07T01:07:48;11.93;;;8.40;;
17937;SDS011;16051;53.024;8.630;2023-04-07T01:12:04;14.40;;;7.77;;
17937;SDS011;16051;53.024;8.630;2023-04-07T01:16:15;12.07;;;8.47;;
17937;SDS011;16051;53.024;8.630;2023-04-07T01:20:32;12.30;;;8.23;;
17937;SDS011;16051;53.024;8.630;2023-04-07T01:24:45;12.10;;;8.57;;
17937;SDS011;16051;53.024;8.630;2023-04-07T01:29:29;14.73;;;8.93;;
17937;SDS011;16051;53.024;8.630;2023-04-07T01:33:39;16.03;;;8.87;;
17937;SDS011;16051;53.024;8.630;2023-04-07T01:42:07;11.63;;;8.10;;
17937;SDS011;16051;53.024;8.630;2023-04-07T01:46:12;12.50;;;8.87;;
17937;SDS011;16051;53.024;8.630;2023-04-07T01:50:14;11.00;;;8.43;;
17937;SDS011;16051;53.024;8.630;2023-04-07T01:54:26;11.13;;;8.47;;
17937;SDS011;16051;53.024;8.630;2023-04-07T01:58:29;13.80;;;9.10;;
17937;SDS011;16051;53.024;8.630;2023-04-07T02:02:33;13.70;;;9.83;;
17937;SDS011;16051;53.024;8.630;2023-04-07T02:06:42;11.97;;;8.80;;
17937;SDS011;16051;53.024;8.630;2023-04-07T02:10:50;11.67;;;8.77;;
17937;SDS011;16051;53.024;8.630;2023-04-07T02:14:56;11.40;;;8.90;;
17937;SDS011;16051;53.024;8.630;2023-04-07T02:19:02;12.67;;;9.43;;
17937;SDS011;16051;53.024;8.630;2023-04-07T02:27:37;11.60;;;8.77;;
17937;SDS011;16051;53.024;8.630;2023-04-07T02:31:41;14.20;;;8.80;;
17937;SDS011;16051;53.024;8.630;2023-04-07T02:35:45;11.73;;;9.07;;
17937;SDS011;16051;53.024;8.630;2023-04-07T02:39:47;13.30;;;9.40;;
17937;SDS011;16051;53.024;8.630;2023-04-07T02:43:49;14.93;;;9.70;;
17937;SDS011;16051;53.024;8.630;2023-04-07T02:47:51;16.23;;;9.03;;
17937;SDS011;16051;53.024;8.630;2023-04-07T02:51:54;12.80;;;9.53;;
17937;SDS011;16051;53.024;8.630;2023-04-07T02:55:57;12.50;;;8.77;;
17937;SDS011;16051;53.024;8.630;2023-04-07T02:59:59;11.37;;;9.53;;
17937;SDS011;16051;53.024;8.630;2023-04-07T03:04:01;13.23;;;9.77;;
17937;SDS011;16051;53.024;8.630;2023-04-07T03:08:05;14.97;;;9.40;;
17937;SDS011;16051;53.024;8.630;2023-04-07T03:12:07;12.37;;;9.67;;
17937;SDS011;16051;53.024;8.630;2023-04-07T03:16:10;12.73;;;9.53;;
17937;SDS011;16051;53.024;8.630;2023-04-07T03:20:12;12.70;;;9.70;;
17937;SDS011;16051;53.024;8.630;2023-04-07T03:24:16;13.67;;;9.47;;
17937;SDS011;16051;53.024;8.630;2023-04-07T03:28:18;12.87;;;9.60;;
17937;SDS011;16051;53.024;8.630;2023-04-07T03:32:20;13.73;;;9.27;;
17937;SDS011;16051;53.024;8.630;2023-04-07T03:36:22;14.70;;;10.07;;
17937;SDS011;16051;53.024;8.630;2023-04-07T03:40:27;12.53;;;9.63;;
17937;SDS011;16051;53.024;8.630;2023-04-07T03:44:29;13.43;;;10.17;;
17937;SDS011;16051;53.024;8.630;2023-04-07T03:48:32;13.80;;;9.73;;
17937;SDS011;16051;53.024;8.630;2023-04-07T03:52:34;15.63;;;10.10;;
17937;SDS011;16051;53.024;8.630;2023-04-07T03:56:37;13.67;;;9.90;;
17937;SDS011;16051;53.024;8.630;2023-04-07T04:00:41;11.60;;;9.60;;
17937;SDS011;16051;53.024;8.630;2023-04-07T04:04:43;14.07;;;10.47;;
17937;SDS011;16051;53.024;8.630;2023-04-07T04:08:53;14.30;;;10.13;;
17937;SDS011;16051;53.024;8.630;2023-04-07T04:12:56;12.67;;;9.63;;
17937;SDS011;16051;53.024;8.630;2023-04-07T04:16:59;14.13;;;10.27;;
17937;SDS011;16051;53.024;8.630;2023-04-07T04:21:06;13.30;;;10.27;;
17937;SDS011;16051;53.024;8.630;2023-04-07T04:25:09;13.50;;;10.53;;
17937;SDS011;16051;53.024;8.630;2023-04-07T04:29:12;14.70;;;10.30;;
17937;SDS011;16051;53.024;8.630;2023-04-07T04:37:42;15.73;;;11.07;;
17937;SDS011;16051;53.024;8.630;2023-04-07T04:41:44;14.93;;;10.67;;
17937;SDS011;16051;53.024;8.630;2023-04-07T04:45:55;14.60;;;10.60;;
17937;SDS011;16051;53.024;8.630;2023-04-07T04:49:57;14.83;;;10.97;;
17937;SDS011;16051;53.024;8.630;2023-04-07T04:53:59;12.93;;;10.07;;
17937;SDS011;16051;53.024;8.630;2023-04-07T04:58:03;12.00;;;9.93;;
17937;SDS011;16051;53.024;8.630;2023-04-07T05:02:06;14.87;;;11.30;;
17937;SDS011;16051;53.024;8.630;2023-04-07T05:06:08;14.73;;;11.10;;
17937;SDS011;16051;53.024;8.630;2023-04-07T05:10:20;16.80;;;11.13;;
17937;SDS011;16051;53.024;8.630;2023-04-07T05:18:51;16.83;;;10.97;;
17937;SDS011;16051;53.024;8.630;2023-04-07T05:26:58;13.83;;;10.83;;
17937;SDS011;16051;53.024;8.630;2023-04-07T05:31:00;13.83;;;10.83;;
17937;SDS011;16051;53.024;8.630;2023-04-07T05:39:40;14.70;;;10.63;;
17937;SDS011;16051;53.024;8.630;2023-04-07T05:43:42;14.87;;;10.67;;
17937;SDS011;16051;53.024;8.630;2023-04-07T05:47:44;17.57;;;11.63;;
17937;SDS011;16051;53.024;8.630;2023-04-07T05:51:50;15.07;;;10.53;;
17937;SDS011;16051;53.024;8.630;2023-04-07T05:55:56;13.60;;;11.13;;
17937;SDS011;16051;53.024;8.630;2023-04-07T05:59:58;15.80;;;11.37;;
17937;SDS011;16051;53.024;8.630;2023-04-07T06:04:00;13.87;;;10.87;;
17937;SDS011;16051;53.024;8.630;2023-04-07T06:08:15;14.03;;;10.27;;
17937;SDS011;16051;53.024;8.630;2023-04-07T06:12:17;15.13;;;10.90;;
17937;SDS011;16051;53.024;8.630;2023-04-07T06:20:41;13.30;;;10.03;;
17937;SDS011;16051;53.024;8.630;2023-04-07T06:24:46;15.73;;;10.97;;
17937;SDS011;16051;53.024;8.630;2023-04-07T06:28:48;15.40;;;10.63;;
17937;SDS011;16051;53.024;8.630;2023-04-07T06:32:50;16.97;;;11.07;;
17937;SDS011;16051;53.024;8.630;2023-04-07T06:36:52;14.17;;;10.60;;
17937;SDS011;16051;53.024;8.630;2023-04-07T06:40:56;14.23;;;11.30;;
17937;SDS011;16051;53.024;8.630;2023-04-07T06:44:58;17.33;;;10.83;;
17937;SDS011;16051;53.024;8.630;2023-04-07T06:49:00;13.20;;;10.63;;
17937;SDS011;16051;53.024;8.630;2023-04-07T06:53:05;13.60;;;10.13;;
17937;SDS011;16051;53.024;8.630;2023-04-07T06:57:09;14.10;;;9.70;;
17937;SDS011;16051;53.024;8.630;2023-04-07T07:01:11;12.70;;;9.97;;
17937;SDS011;16051;53.024;8.630;2023-04-07T07:05:14;12.77;;;9.83;;
17937;SDS011;16051;53.024;8.630;2023-04-07T07:09:16;12.37;;;9.87;;
17937;SDS011;16051;53.024;8.630;2023-04-07T07:13:22;11.77;;;9.63;;
17937;SDS011;16051;53.024;8.630;2023-04-07T07:17:26;11.67;;;9.40;;
17937;SDS011;16051;53.024;8.630;2023-04-07T07:21:34;13.30;;;9.70;;
17937;SDS011;16051;53.024;8.630;2023-04-07T07:25:36;12.73;;;8.97;;
17937;SDS011;16051;53.024;8.630;2023-04-07T07:29:40;11.80;;;9.30;;
17937;SDS011;16051;53.024;8.630;2023-04-07T07:33:51;13.47;;;9.47;;
17937;SDS011;16051;53.024;8.630;2023-04-07T07:37:53;12.23;;;9.33;;
17937;SDS011;16051;53.024;8.630;2023-04-07T07:46:29;11.43;;;9.50;;
17937;SDS011;16051;53.024;8.630;2023-04-07T07:50:31;11.40;;;9.23;;
17937;SDS011;16051;53.024;8.630;2023-04-07T07:54:34;10.80;;;8.93;;
17937;SDS011;16051;53.024;8.630;2023-04-07T07:58:36;11.20;;;9.23;;
17937;SDS011;16051;53.024;8.630;2023-04-07T08:02:39;9.83;;;8.33;;
17937;SDS011;16051;53.024;8.630;2023-04-07T08:06:41;11.27;;;9.33;;
17937;SDS011;16051;53.024;8.630;2023-04-07T08:10:44;10.40;;;8.27;;
17937;SDS011;16051;53.024;8.630;2023-04-07T08:14:46;9.33;;;8.33;;
17937;SDS011;16051;53.024;8.630;2023-04-07T08:18:50;11.43;;;9.10;;
17937;SDS011;16051;53.024;8.630;2023-04-07T08:23:00;11.17;;;8.03;;
17937;SDS011;16051;53.024;8.630;2023-04-07T08:27:02;11.57;;;8.63;;
17937;SDS011;16051;53.024;8.630;2023-04-07T08:35:40;12.23;;;8.40;;
17937;SDS011;16051;53.024;8.630;2023-04-07T08:39:42;11.03;;;8.50;;
17937;SDS011;16051;53.024;8.630;2023-04-07T08:43:45;14.37;;;8.13;;
17937;SDS011;16051;53.024;8.630;2023-04-07T08:47:49;10.20;;;8.30;;
17937;SDS011;16051;53.024;8.630;2023-04-07T08:51:57;12.30;;;7.97;;
17937;SDS011;16051;53.024;8.630;2023-04-07T08:56:03;16.60;;;7.57;;
17937;SDS011;16051;53.024;8.630;2023-04-07T09:00:08;10.53;;;7.63;;
17937;SDS011;16051;53.024;8.630;2023-04-07T09:04:12;9.50;;;8.00;;
17937;SDS011;16051;53.024;8.630;2023-04-07T09:08:16;10.53;;;7.40;;
17937;SDS011;16051;53.024;8.630;2023-04-07T09:12:18;13.53;;;8.43;;
17937;SDS011;16051;53.024;8.630;2023-04-07T09:16:20;8.70;;;6.77;;
17937;SDS011;16051;53.024;8.630;2023-04-07T09:20:23;10.30;;;7.60;;
17937;SDS011;16051;53.024;8.630;2023-04-07T09:24:27;11.00;;;7.00;;
17937;SDS011;16051;53.024;8.630;2023-04-07T09:28:40;12.03;;;7.47;;
17937;SDS011;16051;53.024;8.630;2023-04-07T09:32:44;11.90;;;6.93;;
17937;SDS011;16051;53.024;8.630;2023-04-07T09:36:46;10.67;;;7.50;;
17937;SDS011;16051;53.024;8.630;2023-04-07T09:40:50;11.97;;;7.23;;
17937;SDS011;16051;53.024;8.630;2023-04-07T09:45:06;10.00;;;7.20;;
17937;SDS011;16051;53.024;8.630;2023-04-07T09:53:27;8.47;;;6.97;;
17937;SDS011;16051;53.024;8.630;2023-04-07T09:57:55;9.57;;;7.63;;
17937;SDS011;16051;53.024;8.630;2023-04-07T10:01:58;10.50;;;7.70;;
17937;SDS011;16051;53.024;8.630;2023-04-07T10:06:01;8.77;;;6.90;;
17937;SDS011;16051;53.024;8.630;2023-04-07T10:10:05;13.70;;;7.90;;
17937;SDS011;16051;53.024;8.630;2023-04-07T10:14:10;14.03;;;7.70;;
17937;SDS011;16051;53.024;8.630;2023-04-07T10:18:13;9.20;;;7.03;;
17937;SDS011;16051;53.024;8.630;2023-04-07T10:22:17;7.33;;;6.50;;
17937;SDS011;16051;53.024;8.630;2023-04-07T10:26:21;9.87;;;7.43;;
17937;SDS011;16051;53.024;8.630;2023-04-07T10:30:31;9.33;;;6.77;;
17937;SDS011;16051;53.024;8.630;2023-04-07T10:39:19;8.10;;;7.03;;
17937;SDS011;16051;53.024;8.630;2023-04-07T10:48:09;8.47;;;7.03;;
17937;SDS011;16051;53.024;8.630;2023-04-07T10:52:22;10.77;;;6.80;;
17937;SDS011;16051;53.024;8.630;2023-04-07T11:01:17;9.00;;;6.90;;
17937;SDS011;16051;53.024;8.630;2023-04-07T11:09:27;8.53;;;7.00;;
17937;SDS011;16051;53.024;8.630;2023-04-07T11:13:29;8.23;;;7.10;;
17937;SDS011;16051;53.024;8.630;2023-04-07T11:17:41;8.33;;;6.50;;
17937;SDS011;16051;53.024;8.630;2023-04-07T11:21:45;12.07;;;7.00;;
17937;SDS011;16051;53.024;8.630;2023-04-07T11:25:48;9.47;;;6.50;;
17937;SDS011;16051;53.024;8.630;2023-04-07T11:29:53;8.43;;;6.50;;
17937;SDS011;16051;53.024;8.630;2023-04-07T11:33:56;8.37;;;6.70;;
17937;SDS011;16051;53.024;8.630;2023-04-07T11:38:02;9.93;;;7.50;;
17937;SDS011;16051;53.024;8.630;2023-04-07T11:42:04;11.20;;;6.97;;
17937;SDS011;16051;53.024;8.630;2023-04-07T11:46:09;8.83;;;7.37;;
17937;SDS011;16051;53.024;8.630;2023-04-07T11:50:14;8.03;;;6.93;;
17937;SDS011;16051;53.024;8.630;2023-04-07T11:54:27;8.70;;;6.67;;
17937;SDS011;16051;53.024;8.630;2023-04-07T11:58:45;7.40;;;5.97;;
17937;SDS011;16051;53.024;8.630;2023-04-07T12:07:10;11.97;;;7.60;;
17937;SDS011;16051;53.024;8.630;2023-04-07T12:11:14;8.80;;;6.77;;
17937;SDS011;16051;53.024;8.630;2023-04-07T12:15:16;8.90;;;7.40;;
17937;SDS011;16051;53.024;8.630;2023-04-07T12:19:19;7.37;;;6.60;;
17937;SDS011;16051;53.024;8.630;2023-04-07T12:23:35;8.30;;;6.60;;
17937;SDS011;16051;53.024;8.630;2023-04-07T12:27:38;7.40;;;6.23;;
17937;SDS011;16051;53.024;8.630;2023-04-07T12:31:41;8.40;;;6.53;;
17937;SDS011;16051;53.024;8.630;2023-04-07T12:35:58;7.67;;;6.30;;
17937;SDS011;16051;53.024;8.630;2023-04-07T12:40:00;7.23;;;5.97;;
17937;SDS011;16051;53.024;8.630;2023-04-07T12:44:04;7.67;;;6.50;;
17937;SDS011;16051;53.024;8.630;2023-04-07T12:48:07;8.00;;;6.80;;
17937;SDS011;16051;53.024;8.630;2023-04-07T12:52:10;8.87;;;7.17;;
17937;SDS011;16051;53.024;8.630;2023-04-07T12:56:12;9.73;;;7.00;;
17937;SDS011;16051;53.024;8.630;2023-04-07T13:00:16;9.97;;;7.23;;
17937;SDS011;16051;53.024;8.630;2023-04-07T13:04:18;7.87;;;6.37;;
17937;SDS011;16051;53.024;8.630;2023-04-07T13:08:21;9.17;;;6.57;;
17937;SDS011;16051;53.024;8.630;2023-04-07T13:12:23;10.10;;;7.23;;
17937;SDS011;16051;53.024;8.630;2023-04-07T13:16:27;8.73;;;7.17;;
17937;SDS011;16051;53.024;8.630;2023-04-07T13:20:30;7.77;;;6.97;;
17937;SDS011;16051;53.024;8.630;2023-04-07T13:24:35;8.73;;;6.77;;
17937;SDS011;16051;53.024;8.630;2023-04-07T13:28:37;9.70;;;7.17;;
17937;SDS011;16051;53.024;8.630;2023-04-07T13:32:41;8.50;;;7.03;;
17937;SDS011;16051;53.024;8.630;2023-04-07T13:36:54;8.60;;;6.97;;
17937;SDS011;16051;53.024;8.630;2023-04-07T13:40:56;7.97;;;6.83;;
17937;SDS011;16051;53.024;8.630;2023-04-07T13:49:53;7.00;;;6.13;;
17937;SDS011;16051;53.024;8.630;2023-04-07T13:53:55;7.07;;;6.30;;
17937;SDS011;16051;53.024;8.630;2023-04-07T13:58:08;8.30;;;7.03;;
17937;SDS011;16051;53.024;8.630;2023-04-07T14:02:10;8.13;;;6.47;;
17937;SDS011;16051;53.024;8.630;2023-04-07T14:06:13;9.20;;;6.53;;
17937;SDS011;16051;53.024;8.630;2023-04-07T14:10:16;7.33;;;6.30;;
17937;SDS011;16051;53.024;8.630;2023-04-07T14:18:51;10.03;;;6.37;;
17937;SDS011;16051;53.024;8.630;2023-04-07T14:22:54;7.53;;;5.90;;
17937;SDS011;16051;53.024;8.630;2023-04-07T14:31:25;6.93;;;5.80;;
17937;SDS011;16051;53.024;8.630;2023-04-07T14:35:30;8.27;;;6.17;;
17937;SDS011;16051;53.024;8.630;2023-04-07T14:39:37;6.73;;;5.33;;
17937;SDS011;16051;53.024;8.630;2023-04-07T14:43:39;6.50;;;5.17;;
17937;SDS011;16051;53.024;8.630;2023-04-07T14:47:41;5.57;;;5.00;;
17937;SDS011;16051;53.024;8.630;2023-04-07T14:56:06;6.75;;;6.05;;
17937;SDS011;16051;53.024;8.630;2023-04-07T15:00:15;6.40;;;5.50;;
17937;SDS011;16051;53.024;8.630;2023-04-07T15:04:17;5.40;;;4.47;;
17937;SDS011;16051;53.024;8.630;2023-04-07T15:08:34;5.83;;;4.50;;
17937;SDS011;16051;53.024;8.630;2023-04-07T15:12:38;5.20;;;4.27;;
17937;SDS011;16051;53.024;8.630;2023-04-07T15:16:40;5.57;;;4.37;;
17937;SDS011;16051;53.024;8.630;2023-04-07T15:24:54;4.67;;;3.47;;
17937;SDS011;16051;53.024;8.630;2023-04-07T15:28:57;5.37;;;4.33;;
17937;SDS011;16051;53.024;8.630;2023-04-07T15:33:00;4.47;;;3.77;;
17937;SDS011;16051;53.024;8.630;2023-04-07T15:37:19;6.77;;;3.40;;
17937;SDS011;16051;53.024;8.630;2023-04-07T15:41:21;6.70;;;3.87;;
17937;SDS011;16051;53.024;8.630;2023-04-07T15:45:25;5.13;;;3.63;;
17937;SDS011;16051;53.024;8.630;2023-04-07T15:49:27;4.37;;;3.20;;
17937;SDS011;16051;53.024;8.630;2023-04-07T15:53:29;3.90;;;3.40;;
17937;SDS011;16051;53.024;8.630;2023-04-07T15:57:33;3.93;;;3.30;;
17937;SDS011;16051;53.024;8.630;2023-04-07T16:01:36;4.13;;;3.60;;
17937;SDS011;16051;53.024;8.630;2023-04-07T16:05:38;3.60;;;3.30;;
17937;SDS011;16051;53.024;8.630;2023-04-07T16:09:40;3.63;;;3.13;;
17937;SDS011;16051;53.024;8.630;2023-04-07T16:13:43;3.83;;;3.43;;
17937;SDS011;16051;53.024;8.630;2023-04-07T16:17:47;4.00;;;2.87;;
17937;SDS011;16051;53.024;8.630;2023-04-07T16:21:49;4.77;;;3.60;;
17937;SDS011;16051;53.024;8.630;2023-04-07T16:25:52;5.40;;;3.90;;
17937;SDS011;16051;53.024;8.630;2023-04-07T16:29:54;6.70;;;6.10;;
17937;SDS011;16051;53.024;8.630;2023-04-07T16:38:19;4.33;;;3.50;;
17937;SDS011;16051;53.024;8.630;2023-04-07T16:42:23;5.47;;;3.43;;
17937;SDS011;16051;53.024;8.630;2023-04-07T16:46:44;4.30;;;3.80;;
17937;SDS011;16051;53.024;8.630;2023-04-07T16:50:56;5.63;;;3.97;;
17937;SDS011;16051;53.024;8.630;2023-04-07T16:59:26;5.80;;;3.87;;
17937;SDS011;16051;53.024;8.630;2023-04-07T17:03:28;6.73;;;4.00;;
17937;SDS011;16051;53.024;8.630;2023-04-07T17:12:08;5.13;;;4.13;;
17937;SDS011;16051;53.024;8.630;2023-04-07T17:20:20;5.27;;;4.30;;
17937;SDS011;16051;53.024;8.630;2023-04-07T17:24:24;5.10;;;4.20;;
17937;SDS011;16051;53.024;8.630;2023-04-07T17:28:26;4.87;;;3.70;;
17937;SDS011;16051;53.024;8.630;2023-04-07T17:32:29;5.27;;;3.50;;
17937;SDS011;16051;53.024;8.630;2023-04-07T17:40:58;5.83;;;4.00;;
17937;SDS011;16051;53.024;8.630;2023-04-07T17:45:01;5.53;;;3.47;;
17937;SDS011;16051;53.024;8.630;2023-04-07T17:49:04;4.30;;;3.57;;
17937;SDS011;16051;53.024;8.630;2023-04-07T17:53:07;4.07;;;3.67;;
17937;SDS011;16051;53.024;8.630;2023-04-07T17:57:11;5.50;;;3.67;;
17937;SDS011;16051;53.024;8.630;2023-04-07T18:01:17;5.40;;;4.10;;
17937;SDS011;16051;53.024;8.630;2023-04-07T18:05:20;5.23;;;4.27;;
17937;SDS011;16051;53.024;8.630;2023-04-07T18:09:39;5.00;;;3.63;;
17937;SDS011;16051;53.024;8.630;2023-04-07T18:13:45;4.90;;;3.70;;
17937;SDS011;16051;53.024;8.630;2023-04-07T18:17:47;5.47;;;3.83;;
17937;SDS011;16051;53.024;8.630;2023-04-07T18:21:54;5.37;;;3.80;;
17937;SDS011;16051;53.024;8.630;2023-04-07T18:25:56;6.30;;;3.97;;
17937;SDS011;16051;53.024;8.630;2023-04-07T18:29:59;5.03;;;3.50;;
17937;SDS011;16051;53.024;8.630;2023-04-07T18:34:02;4.13;;;3.33;;
17937;SDS011;16051;53.024;8.630;2023-04-07T18:38:04;4.40;;;3.47;;
17937;SDS011;16051;53.024;8.630;2023-04-07T18:42:06;5.30;;;3.90;;
17937;SDS011;16051;53.024;8.630;2023-04-07T18:46:10;9.60;;;4.07;;
17937;SDS011;16051;53.024;8.630;2023-04-07T18:50:15;6.73;;;3.60;;
17937;SDS011;16051;53.024;8.630;2023-04-07T18:54:17;4.63;;;3.30;;
17937;SDS011;16051;53.024;8.630;2023-04-07T18:58:20;6.57;;;3.93;;
17937;SDS011;16051;53.024;8.630;2023-04-07T19:02:26;3.90;;;3.50;;
17937;SDS011;16051;53.024;8.630;2023-04-07T19:06:28;4.30;;;3.00;;
17937;SDS011;16051;53.024;8.630;2023-04-07T19:10:32;5.23;;;3.67;;
17937;SDS011;16051;53.024;8.630;2023-04-07T19:14:36;3.67;;;3.27;;
17937;SDS011;16051;53.024;8.630;2023-04-07T19:18:49;5.47;;;3.37;;
17937;SDS011;16051;53.024;8.630;2023-04-07T19:27:14;7.60;;;3.67;;
17937;SDS011;16051;53.024;8.630;2023-04-07T19:31:18;5.47;;;3.73;;
17937;SDS011;16051;53.024;8.630;2023-04-07T19:35:21;4.43;;;3.50;;
17937;SDS011;16051;53.024;8.630;2023-04-07T19:39:24;6.23;;;3.73;;
17937;SDS011;16051;53.024;8.630;2023-04-07T19:43:26;3.43;;;3.13;;
17937;SDS011;16051;53.024;8.630;2023-04-07T19:47:28;5.40;;;4.00;;
17937;SDS011;16051;53.024;8.630;2023-04-07T19:51:31;5.13;;;3.47;;
17937;SDS011;16051;53.024;8.630;2023-04-07T19:55:34;5.97;;;4.00;;
17937;SDS011;16051;53.024;8.630;2023-04-07T19:59:38;4.80;;;4.10;;
17937;SDS011;16051;53.024;8.630;2023-04-07T20:03:40;7.17;;;4.47;;
17937;SDS011;16051;53.024;8.630;2023-04-07T20:07:45;6.67;;;4.37;;
17937;SDS011;16051;53.024;8.630;2023-04-07T20:11:48;4.50;;;3.80;;
17937;SDS011;16051;53.024;8.630;2023-04-07T20:15:59;5.87;;;4.00;;
17937;SDS011;16051;53.024;8.630;2023-04-07T20:20:01;7.00;;;4.60;;
17937;SDS011;16051;53.024;8.630;2023-04-07T20:28:26;4.90;;;4.37;;
17937;SDS011;16051;53.024;8.630;2023-04-07T20:32:29;5.13;;;4.63;;
17937;SDS011;16051;53.024;8.630;2023-04-07T20:36:33;6.87;;;5.00;;
17937;SDS011;16051;53.024;8.630;2023-04-07T20:40:36;7.93;;;4.90;;
17937;SDS011;16051;53.024;8.630;2023-04-07T20:44:38;7.07;;;4.80;;
17937;SDS011;16051;53.024;8.630;2023-04-07T20:53:07;6.93;;;4.80;;
17937;SDS011;16051;53.024;8.630;2023-04-07T20:57:11;5.13;;;4.27;;
17937;SDS011;16051;53.024;8.630;2023-04-07T21:01:16;5.73;;;4.30;;
17937;SDS011;16051;53.024;8.630;2023-04-07T21:05:18;4.83;;;4.30;;
17937;SDS011;16051;53.024;8.630;2023-04-07T21:09:21;5.63;;;4.83;;
17937;SDS011;16051;53.024;8.630;2023-04-07T21:13:24;5.10;;;4.30;;
17937;SDS011;16051;53.024;8.630;2023-04-07T21:17:28;6.27;;;5.00;;
17937;SDS011;16051;53.024;8.630;2023-04-07T21:21:30;6.50;;;5.47;;
17937;SDS011;16051;53.024;8.630;2023-04-07T21:25:32;7.03;;;5.20;;
17937;SDS011;16051;53.024;8.630;2023-04-07T21:29:38;6.27;;;5.20;;
17937;SDS011;16051;53.024;8.630;2023-04-07T21:33:41;7.03;;;5.27;;
17937;SDS011;16051;53.024;8.630;2023-04-07T21:37:44;7.57;;;5.33;;
17937;SDS011;16051;53.024;8.630;2023-04-07T21:45:54;5.77;;;5.03;;
17937;SDS011;16051;53.024;8.630;2023-04-07T21:50:10;7.33;;;5.87;;
17937;SDS011;16051;53.024;8.630;2023-04-07T21:54:12;7.23;;;4.93;;
17937;SDS011;16051;53.024;8.630;2023-04-07T21:58:15;7.73;;;5.47;;
17937;SDS011;16051;53.024;8.630;2023-04-07T22:02:18;6.70;;;5.17;;
17937;SDS011;16051;53.024;8.630;2023-04-07T22:06:20;6.07;;;5.30;;
17937;SDS011;16051;53.024;8.630;2023-04-07T22:10:22;6.73;;;5.83;;
17937;SDS011;16051;53.024;8.630;2023-04-07T22:14:25;9.70;;;5.93;;
17937;SDS011;16051;53.024;8.630;2023-04-07T22:18:29;9.53;;;5.87;;
17937;SDS011;16051;53.024;8.630;2023-04-07T22:22:31;6.70;;;5.40;;
17937;SDS011;16051;53.024;8.630;2023-04-07T22:26:33;7.63;;;5.70;;
17937;SDS011;16051;53.024;8.630;2023-04-07T22:35:02;5.77;;;5.13;;
17937;SDS011;16051;53.024;8.630;2023-04-07T22:39:05;7.17;;;5.20;;
17937;SDS011;16051;53.024;8.630;2023-04-07T22:43:07;8.47;;;6.10;;
17937;SDS011;16051;53.024;8.630;2023-04-07T22:47:12;7.87;;;5.80;;
17937;SDS011;16051;53.024;8.630;2023-04-07T22:51:16;8.37;;;5.60;;
17937;SDS011;16051;53.024;8.630;2023-04-07T22:55:18;7.63;;;5.40;;
17937;SDS011;16051;53.024;8.630;2023-04-07T22:59:20;7.60;;;6.03;;
17937;SDS011;16051;53.024;8.630;2023-04-07T23:03:23;6.63;;;5.60;;
17937;SDS011;16051;53.024;8.630;2023-04-07T23:07:27;7.40;;;5.83;;
17937;SDS011;16051;53.024;8.630;2023-04-07T23:11:29;6.60;;;5.40;;
17937;SDS011;16051;53.024;8.630;2023-04-07T23:15:32;9.33;;;5.97;;
17937;SDS011;16051;53.024;8.630;2023-04-07T23:19:36;9.27;;;5.60;;
17937;SDS011;16051;53.024;8.630;2023-04-07T23:23:39;8.83;;;6.23;;
17937;SDS011;16051;53.024;8.630;2023-04-07T23:27:42;7.83;;;6.07;;
17937;SDS011;16051;53.024;8.630;2023-04-07T23:31:44;7.87;;;6.00;;
17937;SDS011;16051;53.024;8.630;2023-04-07T23:35:57;7.90;;;6.47;;
17937;SDS011;16051;53.024;8.630;2023-04-07T23:40:04;7.67;;;6.13;;
17937;SDS011;16051;53.024;8.630;2023-04-07T23:44:07;8.87;;;6.00;;
17937;SDS011;16051;53.024;8.630;2023-04-07T23:48:09;7.83;;;6.33;;
17937;SDS011;16051;53.024;8.630;2023-04-07T23:52:12;7.93;;;6.17;;
17937;SDS011;16051;53.024;8.630;2023-04-07T23:56:15;8.40;;;6.33;;
